createdAt,value
2018-03-30T00:00:01.473Z,2.90
2018-03-30T00:02:29.083Z,2.90
2018-03-30T00:04:56.682Z,2.90
2018-03-30T00:07:24.279Z,2.80
2018-03-30T00:09:57.760Z,2.90
2018-03-30T00:12:25.334Z,2.90
2018-03-30T00:14:52.958Z,2.80
2018-03-30T00:17:20.528Z,2.80
2018-03-30T00:19:48.133Z,2.80
2018-03-30T00:22:15.868Z,2.70
2018-03-30T00:24:43.470Z,2.70
2018-03-30T00:27:11.866Z,2.70
2018-03-30T00:29:40.218Z,2.70
2018-03-30T00:32:07.831Z,2.70
2018-03-30T00:34:35.466Z,2.70
2018-03-30T00:37:03.048Z,2.80
2018-03-30T00:39:31.430Z,2.80
2018-03-30T00:41:59.796Z,2.80
2018-03-30T00:44:27.398Z,2.80
2018-03-30T00:46:54.995Z,2.80
2018-03-30T00:49:22.618Z,2.80
2018-03-30T00:51:51.028Z,2.80
2018-03-30T00:54:19.347Z,2.80
2018-03-30T00:56:46.949Z,2.80
2018-03-30T00:59:15.302Z,2.80
2018-03-30T01:01:43.665Z,2.70
2018-03-30T01:04:11.249Z,2.70
2018-03-30T01:06:38.853Z,2.70
2018-03-30T01:09:06.529Z,2.70
2018-03-30T01:11:34.119Z,2.70
2018-03-30T01:14:01.732Z,2.60
2018-03-30T01:16:30.150Z,2.60
2018-03-30T01:18:57.759Z,2.60
2018-03-30T01:21:26.090Z,2.50
2018-03-30T01:23:53.756Z,2.50
2018-03-30T01:26:21.425Z,2.50
2018-03-30T01:28:49.142Z,2.50
2018-03-30T01:31:17.511Z,2.50
2018-03-30T01:33:45.116Z,2.50
2018-03-30T01:36:13.582Z,2.50
2018-03-30T01:38:42.654Z,2.50
2018-03-30T01:41:11.057Z,2.40
2018-03-30T01:43:39.426Z,2.40
2018-03-30T01:46:07.024Z,2.40
2018-03-30T01:48:34.626Z,2.40
2018-03-30T01:51:02.192Z,2.40
2018-03-30T01:53:29.817Z,2.30
2018-03-30T01:55:57.398Z,2.30
2018-03-30T01:58:25.745Z,2.40
2018-03-30T02:00:53.357Z,2.40
2018-03-30T02:03:20.940Z,2.40
2018-03-30T02:05:48.535Z,2.40
2018-03-30T02:08:16.106Z,2.40
2018-03-30T02:10:45.189Z,2.10
2018-03-30T02:13:12.770Z,2.10
2018-03-30T02:15:40.394Z,1.90
2018-03-30T02:18:08.053Z,1.80
2018-03-30T02:20:35.641Z,1.80
2018-03-30T02:23:03.227Z,1.80
2018-03-30T02:25:30.820Z,1.90
2018-03-30T02:27:58.622Z,1.90
2018-03-30T02:30:26.221Z,1.90
2018-03-30T02:32:53.828Z,2.00
2018-03-30T02:35:22.195Z,1.90
2018-03-30T02:37:50.561Z,1.90
2018-03-30T02:40:18.196Z,1.90
2018-03-30T02:42:45.852Z,1.90
2018-03-30T02:45:13.450Z,1.90
2018-03-30T02:47:41.040Z,1.90
2018-03-30T02:50:09.415Z,2.00
2018-03-30T02:52:37.031Z,1.90
2018-03-30T02:55:04.632Z,2.00
2018-03-30T02:57:33.880Z,2.00
2018-03-30T03:00:01.394Z,2.00
2018-03-30T03:02:29.039Z,2.10
2018-03-30T03:04:56.613Z,2.00
2018-03-30T03:07:24.252Z,1.90
2018-03-30T03:09:51.978Z,2.00
2018-03-30T03:12:21.099Z,1.90
2018-03-30T03:14:49.438Z,1.90
2018-03-30T03:17:17.283Z,1.90
2018-03-30T03:19:44.937Z,1.80
2018-03-30T03:22:12.523Z,1.80
2018-03-30T03:24:40.119Z,1.80
2018-03-30T03:27:07.715Z,1.80
2018-03-30T03:29:36.115Z,1.80
2018-03-30T03:32:04.468Z,1.80
2018-03-30T03:34:32.833Z,1.80
2018-03-30T03:37:00.436Z,1.80
2018-03-30T03:39:28.794Z,1.80
2018-03-30T03:41:56.394Z,1.80
2018-03-30T03:44:24.828Z,1.80
2018-03-30T03:46:52.428Z,1.80
2018-03-30T03:49:20.792Z,1.80
2018-03-30T03:51:49.890Z,1.80
2018-03-30T03:54:18.257Z,1.80
2018-03-30T03:56:45.837Z,1.80
2018-03-30T03:59:13.426Z,1.80
2018-03-30T04:01:41.021Z,1.80
2018-03-30T04:04:08.631Z,1.80
2018-03-30T04:06:36.977Z,1.80
2018-03-30T04:09:04.613Z,1.80
2018-03-30T04:11:32.997Z,1.80
2018-03-30T04:14:01.364Z,1.80
2018-03-30T04:16:29.732Z,1.80
2018-03-30T04:18:58.095Z,1.80
2018-03-30T04:21:25.731Z,1.80
2018-03-30T04:23:53.443Z,1.80
2018-03-30T04:26:21.037Z,1.80
2018-03-30T04:28:49.412Z,1.70
2018-03-30T04:31:17.756Z,1.70
2018-03-30T04:33:45.345Z,1.70
2018-03-30T04:36:12.946Z,1.60
2018-03-30T04:38:41.281Z,1.70
2018-03-30T04:41:08.906Z,1.60
2018-03-30T04:43:36.530Z,1.70
2018-03-30T04:46:04.894Z,1.90
2018-03-30T04:48:32.482Z,1.80
2018-03-30T04:51:00.058Z,1.90
2018-03-30T04:53:28.443Z,1.90
2018-03-30T04:55:56.794Z,2.00
2018-03-30T04:58:24.385Z,2.00
2018-03-30T05:00:52.750Z,2.00
2018-03-30T05:03:20.368Z,2.00
2018-03-30T05:05:47.951Z,2.00
2018-03-30T05:08:15.539Z,2.00
2018-03-30T05:10:43.137Z,2.00
2018-03-30T05:13:11.547Z,2.10
2018-03-30T05:15:39.179Z,2.00
2018-03-30T05:18:07.529Z,2.20
2018-03-30T05:20:35.156Z,2.10
2018-03-30T05:23:02.915Z,2.10
2018-03-30T05:25:30.529Z,2.20
2018-03-30T05:27:58.119Z,2.20
2018-03-30T05:30:25.704Z,2.20
2018-03-30T05:32:54.082Z,2.20
2018-03-30T05:35:22.447Z,2.20
2018-03-30T05:37:51.568Z,2.30
2018-03-30T05:40:19.931Z,2.40
2018-03-30T05:42:47.709Z,2.40
2018-03-30T05:45:15.242Z,2.40
2018-03-30T05:47:42.830Z,2.40
2018-03-30T05:50:10.424Z,2.40
2018-03-30T05:52:38.106Z,2.40
2018-03-30T05:55:05.740Z,2.40
2018-03-30T05:57:34.081Z,2.40
2018-03-30T06:00:01.711Z,2.40
2018-03-30T06:02:29.292Z,2.40
2018-03-30T06:04:57.024Z,2.50
2018-03-30T06:07:25.417Z,2.50
2018-03-30T06:09:53.783Z,2.50
2018-03-30T06:12:22.165Z,2.60
2018-03-30T06:14:50.695Z,2.60
2018-03-30T06:17:18.328Z,2.50
2018-03-30T06:19:46.681Z,2.80
2018-03-30T06:22:14.264Z,2.70
2018-03-30T06:24:41.907Z,2.90
2018-03-30T06:27:09.511Z,3.00
2018-03-30T06:29:37.913Z,3.20
2018-03-30T06:32:05.500Z,3.10
2018-03-30T06:34:33.107Z,3.20
2018-03-30T06:37:00.793Z,3.30
2018-03-30T06:39:29.147Z,3.40
2018-03-30T06:41:56.802Z,3.30
2018-03-30T06:44:24.382Z,3.40
2018-03-30T06:46:52.003Z,3.50
2018-03-30T06:49:19.580Z,3.50
2018-03-30T06:51:47.195Z,3.50
2018-03-30T06:54:15.558Z,3.20
2018-03-30T06:56:44.664Z,3.30
2018-03-30T06:59:13.084Z,3.30
2018-03-30T07:01:40.775Z,3.30
2018-03-30T07:04:09.276Z,3.50
2018-03-30T07:06:36.870Z,3.50
2018-03-30T07:09:04.501Z,3.70
2018-03-30T07:11:32.085Z,4.00
2018-03-30T07:13:59.779Z,4.20
2018-03-30T07:16:28.185Z,4.80
2018-03-30T07:18:55.802Z,4.80
2018-03-30T07:21:23.486Z,5.10
2018-03-30T07:23:51.078Z,5.00
2018-03-30T07:26:19.645Z,5.20
2018-03-30T07:28:48.006Z,5.20
2018-03-30T07:31:17.163Z,5.50
2018-03-30T07:33:44.766Z,5.50
2018-03-30T07:36:12.365Z,5.70
2018-03-30T07:38:40.750Z,5.90
2018-03-30T07:41:09.101Z,6.00
2018-03-30T07:43:36.847Z,6.00
2018-03-30T07:46:04.434Z,6.10
2018-03-30T07:48:32.068Z,6.20
2018-03-30T07:50:59.705Z,6.20
2018-03-30T07:53:28.274Z,5.70
2018-03-30T07:55:55.909Z,5.70
2018-03-30T07:58:23.512Z,6.00
2018-03-30T08:00:51.917Z,6.20
2018-03-30T08:03:19.510Z,6.20
2018-03-30T08:05:47.116Z,6.10
2018-03-30T08:08:14.697Z,6.40
2018-03-30T08:10:43.077Z,7.00
2018-03-30T08:13:11.472Z,7.30
2018-03-30T08:15:39.853Z,7.10
2018-03-30T08:18:08.250Z,6.70
2018-03-30T08:20:35.848Z,6.70
2018-03-30T08:23:03.479Z,6.50
2018-03-30T08:25:31.855Z,6.60
2018-03-30T08:28:00.221Z,6.70
2018-03-30T08:30:28.306Z,6.70
2018-03-30T08:32:56.728Z,7.20
2018-03-30T08:35:24.339Z,7.10
2018-03-30T08:37:51.913Z,7.30
2018-03-30T08:40:20.302Z,7.90
2018-03-30T08:42:48.771Z,8.40
2018-03-30T08:45:16.393Z,8.40
2018-03-30T08:47:44.019Z,8.60
2018-03-30T08:50:12.371Z,8.70
2018-03-30T08:52:39.983Z,8.60
2018-03-30T08:55:07.569Z,8.20
2018-03-30T08:57:35.181Z,8.50
2018-03-30T09:00:02.760Z,8.60
2018-03-30T09:02:31.147Z,8.70
2018-03-30T09:04:59.501Z,8.40
2018-03-30T09:07:27.088Z,8.30
2018-03-30T09:09:55.563Z,8.50
2018-03-30T09:12:23.186Z,8.50
2018-03-30T09:14:50.851Z,8.70
2018-03-30T09:17:21.666Z,9.00
2018-03-30T09:19:49.265Z,9.10
2018-03-30T09:22:16.889Z,9.10
2018-03-30T09:24:45.335Z,9.20
2018-03-30T09:27:12.995Z,9.20
2018-03-30T09:29:46.205Z,8.80
2018-03-30T09:32:13.839Z,8.80
2018-03-30T09:34:41.460Z,9.20
2018-03-30T09:37:09.819Z,8.90
2018-03-30T09:39:37.446Z,8.90
2018-03-30T09:42:05.241Z,9.10
2018-03-30T09:44:32.863Z,8.80
2018-03-30T09:47:01.263Z,9.10
2018-03-30T09:49:28.888Z,9.10
2018-03-30T09:51:57.241Z,9.70
2018-03-30T09:54:24.832Z,9.70
2018-03-30T09:56:52.493Z,9.40
2018-03-30T09:59:20.064Z,9.40
2018-03-30T10:01:51.652Z,9.60
2018-03-30T10:04:23.715Z,10.10
2018-03-30T10:06:51.418Z,10.40
2018-03-30T10:09:19.059Z,10.70
2018-03-30T10:11:46.707Z,10.70
2018-03-30T10:14:14.311Z,10.90
2018-03-30T10:16:41.890Z,11.40
2018-03-30T10:19:09.542Z,11.20
2018-03-30T10:21:37.164Z,11.20
2018-03-30T10:24:05.565Z,11.50
2018-03-30T10:26:33.176Z,11.50
2018-03-30T10:29:00.765Z,12.00
2018-03-30T10:31:28.389Z,11.90
2018-03-30T10:33:56.038Z,12.30
2018-03-30T10:36:23.656Z,12.20
2018-03-30T10:38:51.239Z,12.20
2018-03-30T10:41:19.715Z,13.10
2018-03-30T10:43:47.332Z,13.00
2018-03-30T10:46:14.937Z,13.40
2018-03-30T10:48:42.583Z,13.80
2018-03-30T10:51:10.171Z,13.40
2018-03-30T10:53:39.320Z,13.00
2018-03-30T10:56:06.882Z,13.00
2018-03-30T10:58:34.475Z,13.20
2018-03-30T11:01:02.080Z,13.20
2018-03-30T11:03:30.446Z,13.20
2018-03-30T11:05:58.062Z,13.20
2018-03-30T11:08:25.735Z,13.10
2018-03-30T11:10:53.359Z,12.80
2018-03-30T11:13:21.706Z,12.80
2018-03-30T11:15:49.297Z,12.80
2018-03-30T11:18:18.413Z,13.50
2018-03-30T11:20:46.775Z,13.70
2018-03-30T11:23:15.988Z,13.60
2018-03-30T11:25:43.595Z,13.60
2018-03-30T11:28:11.274Z,13.40
2018-03-30T11:30:39.026Z,13.40
2018-03-30T11:33:06.625Z,13.40
2018-03-30T11:35:34.257Z,13.60
2018-03-30T11:38:01.861Z,14.10
2018-03-30T11:40:30.223Z,14.00
2018-03-30T11:42:57.956Z,14.00
2018-03-30T11:45:26.343Z,13.70
2018-03-30T11:47:54.694Z,13.80
2018-03-30T11:50:22.263Z,13.80
2018-03-30T11:52:49.869Z,14.00
2018-03-30T11:55:17.566Z,14.60
2018-03-30T11:57:45.181Z,14.50
2018-03-30T12:00:13.505Z,14.40
2018-03-30T12:02:41.139Z,14.40
2018-03-30T12:05:09.639Z,14.80
2018-03-30T12:07:37.231Z,14.80
2018-03-30T12:10:04.829Z,14.40
2018-03-30T12:12:32.503Z,13.80
2018-03-30T12:15:00.916Z,14.10
2018-03-30T12:17:28.550Z,14.10
2018-03-30T12:19:56.141Z,13.80
2018-03-30T12:22:23.735Z,13.90
2018-03-30T12:24:51.308Z,13.70
2018-03-30T12:27:18.913Z,13.90
2018-03-30T12:29:46.727Z,14.10
2018-03-30T12:32:14.516Z,14.30
2018-03-30T12:34:42.121Z,14.80
2018-03-30T12:37:10.625Z,14.70
2018-03-30T12:39:38.994Z,14.30
2018-03-30T12:42:07.355Z,14.60
2018-03-30T12:44:34.978Z,14.60
2018-03-30T12:47:02.609Z,14.20
2018-03-30T12:49:30.969Z,13.80
2018-03-30T12:51:58.572Z,13.80
2018-03-30T12:54:26.164Z,13.70
2018-03-30T12:56:53.771Z,13.40
2018-03-30T12:59:21.364Z,13.80
2018-03-30T13:01:49.888Z,13.50
2018-03-30T13:04:17.484Z,13.30
2018-03-30T13:06:45.236Z,13.50
2018-03-30T13:09:12.847Z,13.30
2018-03-30T13:11:41.194Z,13.40
2018-03-30T13:14:08.809Z,13.40
2018-03-30T13:16:36.467Z,13.50
2018-03-30T13:19:04.853Z,13.50
2018-03-30T13:21:32.488Z,13.50
2018-03-30T13:24:00.222Z,13.80
2018-03-30T13:26:27.825Z,13.60
2018-03-30T13:28:55.431Z,13.70
2018-03-30T13:31:23.058Z,13.70
2018-03-30T13:33:50.636Z,13.70
2018-03-30T13:36:19.024Z,13.80
2018-03-30T13:38:47.388Z,13.80
2018-03-30T13:41:15.165Z,13.80
2018-03-30T13:43:43.645Z,13.80
2018-03-30T13:46:12.893Z,14.00
2018-03-30T13:48:40.515Z,14.00
2018-03-30T13:54:04.410Z,14.00
2018-03-30T13:56:34.647Z,13.40
2018-03-30T13:59:11.927Z,13.40
2018-03-30T14:01:59.627Z,13.30
2018-03-30T14:04:27.854Z,13.30
2018-03-30T14:07:04.076Z,13.30
2018-03-30T14:09:33.195Z,13.20
2018-03-30T14:12:12.258Z,13.20
2018-03-30T14:14:39.896Z,13.10
2018-03-30T14:20:25.441Z,13.30
2018-03-30T14:22:55.110Z,13.30
2018-03-30T14:25:23.500Z,13.40
2018-03-30T14:28:09.710Z,13.40
2018-03-30T14:30:40.183Z,13.30
2018-03-30T14:33:20.086Z,13.60
2018-03-30T14:36:10.128Z,13.60
2018-03-30T14:38:47.422Z,13.90
2018-03-30T14:41:15.048Z,13.90
2018-03-30T14:43:44.409Z,14.00
2018-03-30T14:46:20.436Z,13.90
2018-03-30T14:48:51.941Z,13.80
2018-03-30T14:51:40.398Z,14.10
2018-03-30T14:54:08.753Z,14.30
2018-03-30T14:56:39.209Z,14.20
2018-03-30T14:59:18.465Z,14.20
2018-03-30T15:01:55.084Z,14.40
2018-03-30T15:04:29.654Z,14.20
2018-03-30T15:07:00.824Z,13.60
2018-03-30T15:09:37.344Z,13.60
2018-03-30T15:12:20.777Z,13.50
2018-03-30T15:14:49.312Z,13.40
2018-03-30T15:17:18.363Z,13.50
2018-03-30T15:19:46.898Z,13.50
2018-03-30T15:22:21.878Z,13.50
2018-03-30T15:25:00.142Z,13.50
2018-03-30T15:27:40.524Z,13.60
2018-03-30T15:30:09.733Z,13.80
2018-03-30T15:32:40.333Z,13.60
2018-03-30T15:35:08.688Z,13.40
2018-03-30T15:37:37.048Z,13.30
2018-03-30T15:40:08.416Z,13.20
2018-03-30T15:42:37.676Z,13.20
2018-03-30T15:45:42.952Z,13.20
2018-03-30T15:48:11.306Z,13.20
2018-03-30T15:50:38.944Z,13.10
2018-03-30T15:53:06.523Z,13.10
2018-03-30T15:55:34.158Z,13.10
2018-03-30T15:58:01.751Z,13.10
2018-03-30T16:00:29.370Z,13.10
2018-03-30T16:02:57.009Z,13.10
2018-03-30T16:05:24.614Z,13.20
2018-03-30T16:07:52.227Z,13.00
2018-03-30T16:10:22.797Z,13.10
2018-03-30T16:12:51.318Z,13.00
2018-03-30T16:15:18.931Z,13.00
2018-03-30T16:17:47.283Z,12.90
2018-03-30T16:20:14.377Z,13.00
2018-03-30T16:22:42.254Z,12.90
2018-03-30T16:25:10.202Z,12.90
2018-03-30T16:27:37.286Z,12.90
2018-03-30T16:30:05.177Z,12.70
2018-03-30T16:32:32.235Z,12.70
2018-03-30T16:34:59.320Z,12.70
2018-03-30T16:37:26.385Z,12.70
2018-03-30T16:39:53.450Z,12.60
2018-03-30T16:42:21.284Z,12.50
2018-03-30T16:44:48.325Z,12.40
2018-03-30T16:47:15.403Z,12.40
2018-03-30T16:49:42.470Z,12.40
2018-03-30T16:52:09.525Z,12.40
2018-03-30T16:54:36.610Z,12.30
2018-03-30T16:57:03.682Z,12.20
2018-03-30T16:59:30.814Z,12.20
2018-03-30T17:01:57.916Z,12.10
2018-03-30T17:04:25.008Z,12.10
2018-03-30T17:06:52.871Z,12.10
2018-03-30T17:09:19.971Z,12.10
2018-03-30T17:11:47.072Z,12.00
2018-03-30T17:14:14.141Z,11.90
2018-03-30T17:16:42.005Z,11.90
2018-03-30T17:19:09.083Z,11.90
2018-03-30T17:21:36.196Z,11.80
2018-03-30T17:24:03.262Z,11.90
2018-03-30T17:26:30.464Z,11.90
2018-03-30T17:28:57.576Z,11.90
2018-03-30T17:31:24.731Z,11.90
2018-03-30T17:33:51.972Z,11.90
2018-03-30T17:36:19.594Z,11.90
2018-03-30T17:38:46.700Z,11.80
2018-03-30T17:41:13.767Z,11.80
2018-03-30T17:43:41.633Z,11.70
2018-03-30T17:46:08.720Z,11.70
2018-03-30T17:48:35.796Z,11.70
2018-03-30T17:51:02.976Z,11.60
2018-03-30T17:53:30.053Z,11.60
2018-03-30T17:55:57.954Z,11.60
2018-03-30T17:58:25.154Z,11.60
2018-03-30T18:00:52.369Z,11.60
2018-03-30T18:03:19.487Z,11.60
2018-03-30T18:05:47.407Z,11.50
2018-03-30T18:08:14.526Z,11.50
2018-03-30T18:10:42.377Z,11.40
2018-03-30T18:13:09.548Z,11.40
2018-03-30T18:15:37.703Z,11.20
2018-03-30T18:18:05.579Z,11.20
2018-03-30T18:20:32.783Z,11.10
2018-03-30T18:22:59.873Z,11.10
2018-03-30T18:25:27.010Z,11.10
2018-03-30T18:27:54.153Z,11.00
2018-03-30T18:30:21.309Z,11.00
2018-03-30T18:32:48.394Z,10.90
2018-03-30T18:35:15.533Z,10.90
2018-03-30T18:37:42.667Z,10.80
2018-03-30T18:40:09.815Z,10.80
2018-03-30T18:42:36.915Z,10.80
2018-03-30T18:45:04.108Z,10.80
2018-03-30T18:47:31.251Z,10.70
2018-03-30T18:49:59.200Z,10.60
2018-03-30T18:52:26.315Z,10.60
2018-03-30T18:54:53.953Z,10.60
2018-03-30T18:57:21.860Z,10.50
2018-03-30T18:59:49.009Z,10.50
2018-03-30T19:02:16.154Z,10.40
2018-03-30T19:04:43.797Z,10.30
2018-03-30T19:07:11.735Z,10.20
2018-03-30T19:09:38.940Z,10.10
2018-03-30T19:12:06.742Z,10.10
2018-03-30T19:14:33.999Z,10.20
2018-03-30T19:17:01.146Z,10.10
2018-03-30T19:19:28.302Z,10.10
2018-03-30T19:21:55.549Z,10.10
2018-03-30T19:24:22.726Z,10.10
2018-03-30T19:26:49.877Z,10.10
2018-03-30T19:29:18.874Z,10.00
2018-03-30T19:31:46.027Z,10.00
2018-03-30T19:34:15.313Z,9.80
2018-03-30T19:36:42.476Z,9.60
2018-03-30T19:39:09.959Z,9.50
2018-03-30T19:41:37.133Z,9.50
2018-03-30T19:44:04.319Z,9.40
2018-03-30T19:46:32.257Z,9.30
2018-03-30T19:49:00.193Z,9.20
2018-03-30T19:51:27.360Z,9.20
2018-03-30T19:53:54.501Z,9.20
2018-03-30T19:56:22.281Z,9.20
2018-03-30T19:58:49.535Z,9.10
2018-03-30T20:01:16.660Z,9.00
2018-03-30T20:03:44.630Z,9.00
2018-03-30T20:06:12.536Z,8.90
2018-03-30T20:08:39.721Z,8.90
2018-03-30T20:11:06.841Z,8.90
2018-03-30T20:13:34.037Z,8.90
2018-03-30T20:16:01.161Z,8.80
2018-03-30T20:18:28.305Z,8.80
2018-03-30T20:20:55.427Z,8.80
2018-03-30T20:23:23.441Z,8.80
2018-03-30T20:25:50.569Z,8.70
2018-03-30T20:28:19.792Z,8.70
2018-03-30T20:30:46.938Z,8.70
2018-03-30T20:33:14.095Z,8.70
2018-03-30T20:35:41.267Z,8.50
2018-03-30T20:38:08.373Z,8.40
2018-03-30T20:40:36.232Z,8.30
2018-03-30T20:43:03.327Z,8.30
2018-03-30T20:45:30.442Z,8.30
2018-03-30T20:47:58.330Z,8.30
2018-03-30T20:50:26.194Z,8.20
2018-03-30T20:52:53.491Z,8.20
2018-03-30T20:55:20.595Z,8.20
2018-03-30T20:57:47.649Z,8.00
2018-03-30T21:00:14.795Z,8.00
2018-03-30T21:02:41.920Z,8.00
2018-03-30T21:05:09.052Z,7.90
2018-03-30T21:07:36.176Z,7.80
2018-03-30T21:10:04.012Z,7.70
2018-03-30T21:12:31.132Z,7.70
2018-03-30T21:14:58.255Z,7.60
2018-03-30T21:17:25.494Z,7.60
2018-03-30T21:19:52.631Z,7.60
2018-03-30T21:22:20.481Z,7.60
2018-03-30T21:24:47.577Z,7.50
2018-03-30T21:27:14.653Z,7.50
2018-03-30T21:29:41.737Z,7.60
2018-03-30T21:32:08.819Z,7.60
2018-03-30T21:34:35.914Z,7.50
2018-03-30T21:37:02.973Z,7.50
2018-03-30T21:39:30.039Z,7.50
2018-03-30T21:41:57.917Z,7.50
2018-03-30T21:44:25.757Z,7.50
2018-03-30T21:46:52.881Z,7.50
2018-03-30T21:49:19.961Z,7.50
2018-03-30T21:51:47.213Z,7.60
2018-03-30T21:54:14.259Z,7.50
2018-03-30T21:56:41.317Z,7.50
2018-03-30T21:59:08.411Z,7.50
2018-03-30T22:01:36.288Z,7.70
2018-03-30T22:04:03.372Z,7.70
2018-03-30T22:06:30.566Z,7.80
2018-03-30T22:08:57.718Z,8.00
2018-03-30T22:11:24.781Z,8.20
2018-03-30T22:13:51.845Z,8.40
2018-03-30T22:16:19.691Z,8.60
2018-03-30T22:18:46.747Z,8.60
2018-03-30T22:21:13.848Z,8.70
2018-03-30T22:23:40.959Z,8.60
2018-03-30T22:26:08.018Z,8.60
2018-03-30T22:28:35.304Z,8.70
2018-03-30T22:31:03.128Z,8.70
2018-03-30T22:33:30.204Z,8.70
2018-03-30T22:35:58.018Z,8.70
2018-03-30T22:38:25.099Z,8.70
2018-03-30T22:40:52.139Z,8.60
2018-03-30T22:43:19.239Z,8.60
2018-03-30T22:45:46.300Z,8.60
2018-03-30T22:48:14.151Z,8.50
2018-03-30T22:50:41.213Z,8.40
2018-03-30T22:53:08.260Z,8.40
2018-03-30T22:55:36.109Z,8.30
2018-03-30T22:58:03.292Z,8.30
2018-03-30T23:00:30.374Z,8.20
2018-03-30T23:02:57.429Z,8.20
2018-03-30T23:05:24.518Z,8.10
2018-03-30T23:07:51.575Z,8.10
2018-03-30T23:10:18.624Z,8.00
2018-03-30T23:12:45.778Z,8.00
2018-03-30T23:15:12.823Z,7.90
2018-03-30T23:17:39.919Z,7.80
2018-03-30T23:20:07.000Z,7.80
2018-03-30T23:22:34.045Z,7.70
2018-03-30T23:25:01.866Z,7.60
2018-03-30T23:27:28.954Z,7.60
2018-03-30T23:29:56.006Z,7.60
2018-03-30T23:32:23.837Z,7.50
2018-03-30T23:34:50.903Z,7.50
2018-03-30T23:37:17.966Z,7.50
2018-03-30T23:39:45.796Z,7.40
2018-03-30T23:42:12.847Z,7.40
2018-03-30T23:44:39.920Z,7.40
2018-03-30T23:47:07.018Z,7.40
2018-03-30T23:49:34.978Z,7.30
2018-03-30T23:52:02.076Z,7.30
2018-03-30T23:54:29.113Z,7.30
2018-03-30T23:56:56.946Z,7.20
2018-03-30T23:59:24.761Z,7.10
